This is the latest recevied weather packets stored in our database for station/object SP5IZJ-2. If no packets are shown the sender has not sent any weather packets the latest 10 day(s).
| Time | Temp. | Humidity | Pressure | Rain* | Wind** | Luminosity | Snow |
|---|---|---|---|---|---|---|---|
| 1777430479 | -4.44° C | 68% | 1019.6 hPa | 0 mm | - | - | - |
| 1777430093 | -3.89° C | 68% | 1019.5 hPa | 0 mm | - | - | - |
| 1777429628 | -3.89° C | 67% | 1019.4 hPa | 0 mm | - | - | - |
| 1777428833 | -3.33° C | 66% | 1019.4 hPa | 0 mm | - | - | - |
| 1777428413 | 100° C | 100% | 0 hPa | 0 mm | - | - | - |
| 1777427994 | -3.33° C | 65% | 1019.3 hPa | 0 mm | - | - | - |
| 1777427574 | -2.78° C | 64% | 1019.3 hPa | 0 mm | - | - | - |
| 1777427109 | -2.78° C | 64% | 1019.3 hPa | 0 mm | - | - | - |
| 1777426693 | -2.22° C | 65% | 1019.2 hPa | 0 mm | - | - | - |
| 1777426292 | -1.67° C | 65% | 1019.2 hPa | 0 mm | - | - | - |
| 1777425894 | -1.67° C | 65% | 1019.2 hPa | 0 mm | - | - | - |
| 1777425475 | -1.67° C | 65% | 1019.2 hPa | 0 mm | - | - | - |
| 1777425055 | -2.22° C | 65% | 1019.2 hPa | 0 mm | - | - | - |
| 1777424635 | -2.22° C | 64% | 1019.2 hPa | 0 mm | - | - | - |
| 1777423795 | -2.22° C | 63% | 1019.3 hPa | 0 mm | - | - | - |
| 1777423368 | -1.67° C | 63% | 1019.2 hPa | 0 mm | - | - | - |
| 1777422911 | -1.67° C | 63% | 1019.2 hPa | 0 mm | - | - | - |
| 1777422491 | -1.67° C | 63% | 1019.2 hPa | 0 mm | - | - | - |
| 1777422071 | -1.67° C | 62% | 1019.1 hPa | 0 mm | - | - | - |
| 1777421231 | -1.11° C | 61% | 1019.1 hPa | 0 mm | - | - | - |
| 1777420812 | -1.11° C | 61% | 1019.1 hPa | 0 mm | - | - | - |
| 1777420396 | -1.11° C | 61% | 1019 hPa | 0 mm | - | - | - |
| 1777419972 | -1.11° C | 61% | 1019 hPa | 0 mm | - | - | - |
| 1777419552 | -1.11° C | 62% | 1019.3 hPa | 0 mm | - | - | - |
| 1777419132 | -1.11° C | 60% | 1019.2 hPa | 0 mm | - | - | - |
* Rain latest hour (hover to see other rain measurements)
** Current wind speed in m/s (hover to see current wind gust speed)